• Join FlightAware (Why Join?)
  • Login
  • US Flag 
09:31PM EDT


 

Airport Tracker/Info


-or-


 

Live Flight TrackerFlight Track Log ✈ DAL3682 ✈ 28-Apr-2013 ✈ KCVG - KMSP

Flight Track Log - Related Links

Times and Time Zones

All times are in EDT time to prevent confusion due to time zone crossing. See the DAL3682 flight status page for this flight to view local times or setup timezone preferences in your user account.

Time Position Orientation Groundspeed Altitude Reporting Facility
EDT Latitude Longitude Course Direction KTS MPH feet Rate Location/Type
11:43AM 39.0500 -84.6833 293° West 164 189 1,400  Level Cincinnati TRACON
11:44AM 39.0500 -84.7167 270° West 159 183 2,500 1,980 Climbing Cincinnati TRACON
11:45AM 39.0500 -84.8167 270° West 256 295 4,800 2,280 Climbing Cincinnati TRACON
11:46AM 38.9366 -84.8151 309° West  Level FlightAware Approximate
11:46AM 39.0500 -84.8833 270° West 250 288 7,100  Level Cincinnati TRACON
11:46AM 39.0464 -84.9231 263° West 254 292 7,900 2,280 Climbing Indianapolis Center
11:47AM 39.0009 -84.9181 311° West  Level FlightAware Approximate
11:47AM 39.0686 -85.0200 286° West 281 323 10,300  Level Indianapolis Center
11:48AM 39.0672 -85.0189 288° West  Level FlightAware Approximate
11:48AM 39.1067 -85.1231 295° West 310 357 11,800  Level Indianapolis Center
11:49AM 39.1132 -85.1395 293° West  Level FlightAware Approximate
11:49AM 39.1478 -85.2322 296° West 332 382 13,600  Level Indianapolis Center
11:50AM 39.1908 -85.3447 296° West 344 396 15,400 1,800 Climbing Indianapolis Center
11:51AM 39.2828 -85.4383 322° Northwest 366 421 17,300 1,560 Climbing Indianapolis Center
11:52AM 39.3750 -85.5019 332° Northwest 374 430 18,700 1,260 Climbing Indianapolis Center
11:53AM 39.4686 -85.5672 332° Northwest 380 437 19,900 1,140 Climbing Indianapolis Center
11:54AM 39.5653 -85.6350 332° Northwest 390 449 21,100 1,140 Climbing Indianapolis Center
11:55AM 39.6611 -85.7022 332° Northwest 391 450 22,300 1,020 Climbing Indianapolis Center
11:56AM 39.7567 -85.7706 331° Northwest 392 451 23,300 720 Climbing Indianapolis Center
11:58AM 39.8550 -85.8392 332° Northwest 399 459 23,800 300 Climbing Indianapolis Center
11:59AM 39.9564 -85.9125 331° Northwest 414 476 24,000 240 Climbing Indianapolis Center
12:00PM 40.0817 -86.0000 332° Northwest 437 503 24,300 480 Climbing Indianapolis Center
12:01PM 40.1883 -86.0767 331° Northwest 438 504 25,100 660 Climbing Indianapolis Center
12:02PM 40.2944 -86.1528 331° Northwest 435 501 25,700 540 Climbing Indianapolis Center
12:03PM 40.4019 -86.2297 331° Northwest 438 504 26,300 480 Climbing Indianapolis Center
12:04PM 40.5100 -86.3094 331° Northwest 442 509 26,800 480 Climbing Indianapolis Center
12:05PM 40.6183 -86.3856 332° Northwest 440 506 27,300 480 Climbing Indianapolis Center
12:06PM 40.7258 -86.4656 331° Northwest 441 507 27,800 480 Climbing Indianapolis Center
12:07PM 40.8522 -86.5561 332° Northwest 442 509 28,400 480 Climbing Indianapolis Center
12:08PM 40.9600 -86.6358 331° Northwest 441 507 28,900 480 Climbing Indianapolis Center
12:09PM 41.0678 -86.7158 331° Northwest 442 509 29,400 480 Climbing Indianapolis Center
12:10PM 41.1764 -86.7939 332° Northwest 441 507 29,900 240 Climbing Indianapolis Center
12:11PM 41.2956 -86.8850 330° Northwest 440 506 30,000  Climbing Chicago Center
12:12PM 41.4042 -86.9653 331° Northwest 447 514 30,000  Level Chicago Center
12:13PM 41.5072 -87.0428 331° Northwest 437 503 30,000  Level Chicago Center
12:14PM 41.6286 -87.1336 331° Northwest 425 489 30,000  Level Chicago Center
12:15PM 41.7264 -87.2078 330° Northwest 414 476 30,000  Level Chicago Center
12:16PM 41.8256 -87.2831 331° Northwest 413 475 30,000  Level Chicago Center
12:17PM 41.9247 -87.3581 331° Northwest 412 474 30,000  Level Chicago Center
12:18PM 42.0231 -87.4319 331° Northwest 411 473 30,000  Level Chicago Center
12:19PM 42.1442 -87.5244 330° Northwest 418 481 30,000  Level Chicago Center
12:20PM 42.2450 -87.6033 330° Northwest 422 486 30,000  Level Chicago Center
12:21PM 42.3469 -87.6808 331° Northwest 422 486 30,000  Level Chicago Center
12:22PM 42.4481 -87.7600 330° Northwest 422 486 30,000  Level Chicago Center
12:23PM 42.5375 -87.8639 319° Northwest 424 488 30,000  Level Chicago Center
12:24PM 42.6347 -87.9944 315° West 420 483 30,000  Level Chicago Center
12:25PM 42.7197 -88.1061 316° Northwest 422 486 30,000  Level Chicago Center
12:26PM 42.8050 -88.2164 317° Northwest 422 486 30,000  Level Chicago Center
12:27PM 42.8892 -88.3303 315° West 424 488 30,000  Level Chicago Center
12:29PM 42.9722 -88.4428 315° West 419 482 30,000  Level Chicago Center
12:30PM 43.0550 -88.5528 316° Northwest 414 476 30,000  Level Chicago Center
12:31PM 43.1386 -88.6653 316° Northwest 417 480 30,000  Level Chicago Center
12:32PM 43.2361 -88.7956 316° Northwest 416 479 30,000  Level Chicago Center
12:33PM 43.3183 -88.9069 315° West 414 476 30,000  Level Chicago Center
12:34PM 43.4003 -89.0192 315° West 412 474 30,000  Level Chicago Center
12:35PM 43.4814 -89.1314 315° West 412 474 30,000  Level Chicago Center
12:36PM 43.5628 -89.2439 315° West 413 475 30,000  Level Chicago Center
12:37PM 43.6311 -89.3381 315° West 414 476 30,000  Level Minneapolis Center
12:38PM 43.6981 -89.4303 315° West 411 473 30,000  Level Minneapolis Center
12:39PM 43.8044 -89.5786 315° West 407 468 30,000  Level Minneapolis Center
12:40PM 43.8839 -89.6911 314° West 407 468 30,000  Level Minneapolis Center
12:41PM 43.9636 -89.8014 315° West 405 466 30,000  Level Minneapolis Center
12:42PM 44.0250 -89.9325 303° West 405 466 30,000  Level Minneapolis Center
12:43PM 44.0853 -90.0675 302° West 408 470 30,000  Level Minneapolis Center
12:44PM 44.1458 -90.2011 302° West 409 471 30,000  Level Minneapolis Center
12:45PM 44.2081 -90.3394 302° West 405 466 30,000  Level Minneapolis Center
12:46PM 44.2756 -90.4903 302° West 406 467 30,000  Level Minneapolis Center
12:47PM 44.3364 -90.6275 302° West 414 476 30,000  Level Minneapolis Center
12:48PM 44.3978 -90.7653 302° West 417 480 30,000  Level Minneapolis Center
12:49PM 44.4608 -90.9097 301° West 422 486 30,000 -480 Level Minneapolis Center
12:50PM 44.5183 -91.0403 302° West 418 481 29,100 -1,440 Descending Minneapolis Center
12:51PM 44.5775 -91.1739 302° West 409 471 27,100 -2,100 Descending Minneapolis Center
12:52PM 44.6461 -91.3350 301° West 403 464 24,800 -2,040 Descending Minneapolis Center
12:53PM 44.7039 -91.4683 301° West 403 464 22,900 -1,860 Descending Minneapolis Center
12:54PM 44.7586 -91.5978 301° West 393 452 21,000 -1,860 Descending Minneapolis Center
12:55PM 44.8111 -91.7197 301° West 373 429 19,100 -1,920 Descending Minneapolis Center
12:56PM 44.8636 -91.8447 301° West 373 429 17,100 -1,860 Descending Minneapolis Center
12:57PM 44.9156 -91.9667 301° West 365 420 15,300 -1,980 Descending Minneapolis Center
12:58PM 44.9728 -92.1064 300° West 348 400 13,100 -1,980 Descending Minneapolis Center
12:59PM 45.0208 -92.2178 301° West 337 388 11,300 -1,020 Descending Minneapolis Center
01:00PM 45.0408 -92.3372 283° West 333 383 11,000 -180 Descending Minneapolis Center
01:01PM 45.0211 -92.4650 258° West 334 384 11,000  Level Minneapolis Center
01:02PM 45.0011 -92.5928 258° West 335 386 11,000  Level Minneapolis Center
01:03PM 44.9808 -92.7206 257° West 336 387 11,000 -60 Level Minneapolis Center
01:04PM 44.9561 -92.8733 257° West 334 384 10,900 -420 Descending Minneapolis Center
01:05PM 44.9369 -92.9928 257° West 315 362 10,200 -1,020 Descending Minneapolis Center
01:06PM 44.9372 -93.0875 270° West 261 300 8,800 -1,260 Descending Minneapolis Center
01:08PM 44.9764 -93.1669 305° West 248 285 7,700 -1,320 Descending Minneapolis Center
01:09PM 45.0156 -93.2431 306° West 243 280 6,100 -1,800 Descending Minneapolis Center
01:10PM 45.0406 -93.3419 290° West 234 269 4,100 -1,320 Descending Minneapolis Center
01:11PM 44.9842 -93.3569 191° South 209 241 3,400 -720 Descending Minneapolis Center